Time;durP1;ratioP1;P1;durP2;ratioP2;P2;SDS_P1;SDS_P2;PMS_P1;PMS_P2;Temp;Humidity;BMP_temperature;BMP_pressure;BME280_temperature;BME280_humidity;BME280_pressure;Samples;Min_cycle;Max_cycle;Signal;HPM_P1;HPM_P2
2022/05/27 00:00:49;;;;;;;22.50;10.23;;;14.80;99.90;;;;;;5072827;23;20053;-71
2022/05/27 00:03:15;;;;;;;16.85;9.30;;;14.80;99.90;;;;;;5055998;28;20016;-72
2022/05/27 00:05:40;;;;;;;18.98;9.43;;;14.80;99.90;;;;;;5036905;28;20124;-72
2022/05/27 00:08:07;;;;;;;17.23;10.13;;;14.80;99.90;;;;;;5026612;28;20037;-73
2022/05/27 00:10:34;;;;;;;20.73;9.95;;;14.80;99.90;;;;;;5026771;28;20463;-73
2022/05/27 00:12:59;;;;;;;16.98;9.20;;;14.80;99.90;;;;;;5038446;28;20021;-73
2022/05/27 00:15:25;;;;;;;17.20;9.50;;;14.80;99.90;;;;;;5057989;28;20028;-73
2022/05/27 00:17:51;;;;;;;17.95;9.90;;;14.80;99.90;;;;;;5038027;28;20100;-73
2022/05/27 00:20:17;;;;;;;21.50;10.07;;;14.80;99.90;;;;;;5041611;28;20058;-74
2022/05/27 00:22:43;;;;;;;18.80;9.77;;;14.90;99.90;;;;;;5036909;28;20017;-73
2022/05/27 00:25:09;;;;;;;15.82;8.98;;;14.90;99.90;;;;;;5039973;28;20080;-72
2022/05/27 00:27:35;;;;;;;20.15;9.55;;;14.90;99.90;;;;;;5020579;28;20029;-72
2022/05/27 00:30:01;;;;;;;24.90;10.20;;;14.90;99.90;;;;;;5022238;28;20057;-74
2022/05/27 00:32:27;;;;;;;23.25;9.65;;;14.90;99.90;;;;;;5042257;28;20021;-73
2022/05/27 00:34:52;;;;;;;16.95;10.43;;;14.80;99.90;;;;;;5040641;28;20036;-73
2022/05/27 00:37:18;;;;;;;23.08;10.32;;;14.80;99.90;;;;;;5037786;28;20037;-73
2022/05/27 00:39:43;;;;;;;26.23;10.05;;;14.80;99.90;;;;;;5039175;28;20025;-73
2022/05/27 00:42:09;;;;;;;20.35;11.05;;;14.70;99.90;;;;;;5039758;28;20032;-73
2022/05/27 00:44:35;;;;;;;22.77;11.55;;;14.70;99.90;;;;;;5039025;28;20021;-74
2022/05/27 00:47:09;;;;;;;20.55;11.07;;;14.60;99.90;;;;;;5038677;28;20418;-74
2022/05/27 00:49:42;;;;;;;19.48;9.57;;;14.60;99.90;;;;;;5039578;28;20025;-74
2022/05/27 00:52:11;;;;;;;23.13;10.57;;;14.50;99.90;;;;;;5039419;28;20025;-73
2022/05/27 00:54:37;;;;;;;29.85;11.57;;;14.50;99.90;;;;;;5043249;28;20026;-73
2022/05/27 00:57:13;;;;;;;20.65;10.75;;;14.40;99.90;;;;;;5038936;28;20029;-73
2022/05/27 00:59:45;;;;;;;27.05;11.88;;;14.40;99.90;;;;;;5038478;28;20045;-73
2022/05/27 01:02:10;;;;;;;20.60;11.77;;;14.40;99.90;;;;;;5021350;28;20025;-74
2022/05/27 01:04:37;;;;;;;26.63;12.10;;;14.40;99.90;;;;;;5036907;28;20044;-74
2022/05/27 01:07:04;;;;;;;20.92;11.00;;;14.40;99.90;;;;;;5037288;28;20025;-74
2022/05/27 01:09:30;;;;;;;30.52;12.27;;;14.30;99.90;;;;;;5039408;28;20040;-74
2022/05/27 01:12:31;;;;;;;25.35;12.55;;;14.40;99.90;;;;;;5023076;28;20026;-74
2022/05/27 01:15:52;;;;;;;24.33;12.27;;;14.40;99.90;;;;;;5034357;28;20040;-73
2022/05/27 01:22:02;;;;;;;25.70;11.65;;;14.30;99.90;;;;;;5039050;28;20056;-74
2022/05/27 01:24:52;;;;;;;17.95;10.30;;;14.20;99.90;;;;;;5004642;28;20104;-73
2022/05/27 01:27:29;;;;;;;23.42;10.60;;;14.20;99.90;;;;;;5021360;28;20020;-74
2022/05/27 01:30:40;;;;;;;21.38;10.07;;;14.10;99.90;;;;;;5022194;28;20049;-73
2022/05/27 01:33:50;;;;;;;22.10;9.30;;;14.10;99.90;;;;;;4947058;29;20035;-74
2022/05/27 01:36:21;;;;;;;20.85;9.15;;;14.00;99.90;;;;;;4944970;29;20028;-73
2022/05/27 01:39:02;;;;;;;;;;;14.00;99.90;;;;;;5013830;28;20042;-73
2022/05/27 01:41:32;;;;;;;17.70;9.25;;;14.00;99.90;;;;;;5022210;28;20287;-73
2022/05/27 01:44:06;;;;;;;17.20;9.63;;;14.00;99.90;;;;;;5022086;28;20030;-73
2022/05/27 01:46:40;;;;;;;24.08;10.20;;;13.90;99.90;;;;;;5023509;28;20032;-74
2022/05/27 01:49:20;;;;;;;22.25;9.23;;;13.90;99.90;;;;;;5004402;28;20032;-74
2022/05/27 01:51:54;;;;;;;22.42;9.80;;;13.90;99.90;;;;;;5022669;28;20064;-74
2022/05/27 01:54:32;;;;;;;20.23;10.30;;;13.80;99.90;;;;;;5022532;28;20132;-73
2022/05/27 01:57:13;;;;;;;17.63;9.30;;;13.80;99.90;;;;;;5035462;28;20060;-73
2022/05/27 02:00:24;;;;;;;23.98;9.88;;;13.80;99.90;;;;;;4992655;28;1129952;-74
2022/05/27 02:03:03;;;;;;;20.58;9.68;;;13.90;99.90;;;;;;5022859;28;20038;-74
2022/05/27 02:05:40;;;;;;;16.73;8.15;;;13.90;99.90;;;;;;5025449;28;20045;-75
2022/05/27 02:08:11;;;;;;;15.75;7.07;;;13.90;99.90;;;;;;5020283;28;20018;-74
2022/05/27 02:11:06;;;;;;;16.15;6.43;;;13.90;99.90;;;;;;5019380;28;20045;-74
2022/05/27 02:13:38;;;;;;;20.20;6.30;;;13.90;99.90;;;;;;5018910;28;20030;-74
2022/05/27 02:16:06;;;;;;;18.55;6.68;;;13.90;99.90;;;;;;5019765;28;20168;-74
2022/05/27 02:18:50;;;;;;;19.25;6.10;;;13.80;99.90;;;;;;5002482;28;20061;-73
2022/05/27 02:21:26;;;;;;;17.33;5.68;;;13.80;99.90;;;;;;5002326;28;20160;-74
2022/05/27 02:23:57;;;;;;;21.02;5.15;;;13.80;99.90;;;;;;5019230;28;20040;-74
2022/05/27 02:26:24;;;;;;;;;;;13.80;99.90;;;;;;5020199;28;20050;-75
2022/05/27 02:28:58;;;;;;;23.30;4.80;;;13.70;99.90;;;;;;5002357;28;20329;-74
2022/05/27 02:31:28;;;;;;;20.38;5.20;;;13.70;99.90;;;;;;5019748;28;20033;-74
2022/05/27 02:37:11;;;;;;;18.42;4.90;;;13.60;99.90;;;;;;5018321;28;20121;-74
2022/05/27 02:39:38;;;;;;;16.13;3.88;;;13.60;99.90;;;;;;5018094;28;20030;-74
2022/05/27 02:42:23;;;;;;;16.70;3.72;;;13.50;99.90;;;;;;5017661;28;20030;-74
2022/05/27 02:45:19;;;;;;;21.08;4.03;;;13.50;99.90;;;;;;5018154;28;20026;-74
2022/05/27 02:48:07;;;;;;;14.60;3.45;;;13.40;99.90;;;;;;5019093;28;20113;-74
2022/05/27 02:51:18;;;;;;;21.50;3.97;;;13.40;99.90;;;;;;5019185;28;20022;-70
2022/05/27 02:53:54;;;;;;;15.38;4.32;;;13.30;99.90;;;;;;5010795;28;20606;-69
2022/05/27 02:56:22;;;;;;;16.65;3.30;;;13.30;99.90;;;;;;5026031;28;20060;-69
2022/05/27 02:58:48;;;;;;;18.17;3.97;;;13.20;99.90;;;;;;5024277;28;20113;-70
2022/05/27 03:01:14;;;;;;;17.48;4.50;;;13.20;99.90;;;;;;5004836;28;20502;-69
2022/05/27 03:03:40;;;;;;;18.05;3.60;;;13.20;99.90;;;;;;5022813;28;20026;-69
2022/05/27 03:06:16;;;;;;;12.30;3.40;;;13.10;99.90;;;;;;5004117;28;20041;-70
2022/05/27 03:08:57;;;;;;;20.92;3.83;;;13.10;99.90;;;;;;5021279;28;20077;-70
2022/05/27 03:11:47;;;;;;;17.40;3.40;;;13.10;99.90;;;;;;5021294;28;20080;-69
2022/05/27 03:14:18;;;;;;;17.15;4.38;;;13.10;99.90;;;;;;5003892;28;20276;-69
2022/05/27 03:17:08;;;;;;;17.00;4.18;;;13.00;99.90;;;;;;5006456;28;20026;-70
2022/05/27 03:19:43;;;;;;;17.70;3.70;;;13.00;99.90;;;;;;5023695;28;20435;-70
2022/05/27 03:22:12;;;;;;;14.98;3.75;;;13.00;99.90;;;;;;5005588;28;20030;-70
2022/05/27 03:24:48;;;;;;;14.43;3.97;;;13.00;99.90;;;;;;5023251;28;20103;-70
2022/05/27 03:27:25;;;;;;;15.23;3.85;;;12.90;99.90;;;;;;5021969;28;20018;-70
2022/05/27 03:30:02;;;;;;;13.70;3.75;;;12.90;99.90;;;;;;5023003;28;20525;-70
2022/05/27 03:32:47;;;;;;;21.27;4.75;;;12.90;99.90;;;;;;5028883;28;20129;-70
2022/05/27 03:35:37;;;;;;;16.08;4.63;;;12.90;99.90;;;;;;5003087;28;20452;-70
2022/05/27 03:38:24;;;;;;;19.27;3.53;;;12.90;99.90;;;;;;5019788;28;20052;-70
2022/05/27 03:41:01;;;;;;;10.85;3.70;;;12.90;99.90;;;;;;5019280;28;20394;-70
2022/05/27 03:43:28;;;;;;;13.02;3.63;;;12.80;99.90;;;;;;5018006;28;20120;-69
2022/05/27 03:46:00;;;;;;;15.98;3.80;;;12.90;99.90;;;;;;5036117;28;20049;-70
2022/05/27 03:48:28;;;;;;;11.10;3.30;;;12.80;99.90;;;;;;5034983;28;20037;-70
2022/05/27 03:51:00;;;;;;;20.45;3.75;;;12.80;99.90;;;;;;5035351;28;20382;-70
2022/05/27 03:54:03;;;;;;;20.15;4.30;;;12.80;99.90;;;;;;5017909;28;20029;-70
2022/05/27 03:56:12;;;;;;;13.70;3.65;;;12.80;99.90;;;;;;5035530;28;20117;-70
2022/05/27 03:58:37;;;;;;;16.83;3.38;;;12.80;99.90;;;;;;5037746;28;20060;-70
2022/05/27 04:01:03;;;;;;;11.98;3.50;;;12.90;99.90;;;;;;5035480;28;20041;-70
2022/05/27 04:03:28;;;;;;;16.17;3.00;;;12.90;99.90;;;;;;5035614;28;20029;-70
2022/05/27 04:05:54;;;;;;;13.15;2.78;;;12.90;99.90;;;;;;5035647;28;20105;-70
2022/05/27 04:08:20;;;;;;;11.70;2.97;;;12.90;99.90;;;;;;5035747;28;20029;-70
2022/05/27 04:10:45;;;;;;;18.08;3.75;;;12.90;99.90;;;;;;5035998;28;20052;-70
2022/05/27 04:13:11;;;;;;;15.00;3.30;;;12.80;99.90;;;;;;5035790;28;20026;-71
2022/05/27 04:15:36;;;;;;;14.30;4.45;;;12.80;99.90;;;;;;5035698;28;20034;-70
2022/05/27 04:18:02;;;;;;;18.33;3.75;;;12.80;99.90;;;;;;5035210;28;20032;-70
2022/05/27 04:20:27;;;;;;;14.40;3.25;;;12.90;99.90;;;;;;5036485;28;20021;-69
2022/05/27 04:22:56;;;;;;;15.07;2.58;;;12.90;99.90;;;;;;5035671;28;20049;-70
2022/05/27 04:25:22;;;;;;;18.85;2.92;;;12.90;99.90;;;;;;5035212;28;20021;-70
2022/05/27 04:27:49;;;;;;;16.75;2.80;;;13.00;99.90;;;;;;5034960;28;20025;-70
2022/05/27 04:30:15;;;;;;;11.00;2.78;;;13.00;99.90;;;;;;5034734;28;20479;-70
2022/05/27 04:32:41;;;;;;;10.77;2.65;;;13.00;99.90;;;;;;5034702;28;20026;-70
2022/05/27 04:35:09;;;;;;;7.30;2.63;;;13.10;99.90;;;;;;5034419;28;20022;-70
2022/05/27 04:37:35;;;;;;;9.23;2.97;;;13.10;99.90;;;;;;5034678;28;20025;-70
2022/05/27 04:40:02;;;;;;;11.07;2.60;;;13.10;99.90;;;;;;5033259;28;20441;-69
2022/05/27 04:42:28;;;;;;;12.70;3.22;;;13.20;99.90;;;;;;5034627;28;20503;-70
2022/05/27 04:44:54;;;;;;;13.70;2.47;;;13.30;99.90;;;;;;5034789;28;20025;-71
2022/05/27 04:47:20;;;;;;;14.68;3.42;;;13.40;99.90;;;;;;5035073;28;20027;-69
2022/05/27 04:49:51;;;;;;;13.25;3.03;;;13.40;99.90;;;;;;5035199;28;20052;-70
2022/05/27 04:52:26;;;;;;;18.17;3.05;;;13.40;99.90;;;;;;5017639;28;20075;-70
2022/05/27 04:54:52;;;;;;;12.07;3.08;;;13.40;99.90;;;;;;5035932;28;20029;-70
2022/05/27 04:57:21;;;;;;;9.65;2.60;;;13.50;99.90;;;;;;5034818;28;20033;-70
2022/05/27 04:59:49;;;;;;;11.60;2.92;;;13.50;99.90;;;;;;5036112;28;20544;-69
2022/05/27 05:02:20;;;;;;;14.85;2.80;;;13.50;99.90;;;;;;5037411;28;20038;-70
2022/05/27 05:04:46;;;;;;;16.48;2.85;;;13.60;99.90;;;;;;5035210;28;20029;-70
2022/05/27 05:07:12;;;;;;;11.30;2.97;;;13.60;99.90;;;;;;5020524;28;20021;-70
2022/05/27 05:09:41;;;;;;;11.02;1.90;;;13.60;99.90;;;;;;5038740;28;20025;-70
2022/05/27 05:12:08;;;;;;;9.23;2.35;;;13.60;99.90;;;;;;5039185;28;20485;-69
2022/05/27 05:14:33;;;;;;;16.23;2.70;;;13.70;99.90;;;;;;5039433;28;20400;-70
2022/05/27 05:16:59;;;;;;;11.30;2.95;;;13.70;99.90;;;;;;5039609;28;20029;-70
2022/05/27 05:19:25;;;;;;;15.43;2.70;;;13.90;99.90;;;;;;5039859;28;20141;-70
2022/05/27 05:21:50;;;;;;;13.70;2.58;;;13.90;99.90;;;;;;5040860;28;20107;-69
2022/05/27 05:24:16;;;;;;;16.00;3.97;;;14.00;99.90;;;;;;5041775;28;20052;-69
2022/05/27 05:26:42;;;;;;;9.63;3.90;;;14.00;99.90;;;;;;5042122;28;20030;-70
2022/05/27 05:29:07;;;;;;;9.38;2.58;;;14.20;99.90;;;;;;5042543;28;20048;-70
2022/05/27 05:31:34;;;;;;;13.00;2.83;;;14.30;99.90;;;;;;5041334;28;20052;-70
2022/05/27 05:33:59;;;;;;;14.35;3.10;;;14.50;99.90;;;;;;5040404;28;20475;-70
2022/05/27 05:36:29;;;;;;;14.85;2.83;;;14.50;99.90;;;;;;5042228;28;20116;-68
2022/05/27 05:38:55;;;;;;;11.40;2.95;;;14.50;99.90;;;;;;5038732;28;20061;-70
2022/05/27 05:41:29;;;;;;;12.88;3.33;;;14.60;99.90;;;;;;5038108;28;20027;-70
2022/05/27 05:43:56;;;;;;;9.18;2.47;;;14.40;99.90;;;;;;5020271;28;20025;-70
2022/05/27 05:46:23;;;;;;;13.35;3.45;;;14.40;99.90;;;;;;5037820;28;20029;-70
2022/05/27 05:48:49;;;;;;;13.43;2.72;;;14.50;99.90;;;;;;5038165;28;20034;-70
2022/05/27 05:51:14;;;;;;;12.23;2.63;;;14.60;99.90;;;;;;5038064;28;20021;-70
2022/05/27 05:53:40;;;;;;;9.98;2.60;;;14.50;99.90;;;;;;5038147;28;20032;-70
2022/05/27 05:56:05;;;;;;;15.20;2.42;;;14.50;99.90;;;;;;5037760;28;20033;-69
2022/05/27 05:58:31;;;;;;;17.40;2.92;;;14.50;99.90;;;;;;5037689;28;20025;-69
2022/05/27 06:00:57;;;;;;;10.93;3.20;;;14.50;99.90;;;;;;5065152;23;20049;-49
2022/05/27 06:03:22;;;;;;;12.82;3.50;;;14.50;99.90;;;;;;5056037;28;20055;-48
2022/05/27 06:05:48;;;;;;;14.23;3.00;;;14.50;99.90;;;;;;5055157;28;20013;-49
2022/05/27 06:08:15;;;;;;;11.95;3.40;;;14.60;99.90;;;;;;5055602;28;20466;-49
2022/05/27 06:10:41;;;;;;;12.40;2.70;;;14.70;99.90;;;;;;5056677;28;20052;-51
2022/05/27 06:13:07;;;;;;;11.98;2.38;;;14.80;99.90;;;;;;5056116;28;20486;-52
2022/05/27 06:15:33;;;;;;;16.83;3.38;;;14.80;99.90;;;;;;5056600;28;20043;-49
2022/05/27 06:17:59;;;;;;;14.52;2.85;;;14.70;99.90;;;;;;5072435;28;20025;-49
2022/05/27 06:20:26;;;;;;;17.23;2.72;;;14.70;99.90;;;;;;5056464;28;20083;-51
2022/05/27 06:22:52;;;;;;;11.30;2.45;;;14.60;99.90;;;;;;5051271;28;20486;-51
2022/05/27 06:25:17;;;;;;;18.02;3.00;;;14.60;99.90;;;;;;5046136;28;20052;-51
2022/05/27 06:27:43;;;;;;;15.77;2.53;;;14.70;99.90;;;;;;5036641;28;20082;-50
2022/05/27 06:35:40;;;;;;;17.42;4.45;;;14.80;99.90;;;;;;5047712;28;20398;-51
2022/05/27 06:38:05;;;;;;;17.00;3.13;;;15.00;99.90;;;;;;5054409;28;20029;-51
2022/05/27 06:40:31;;;;;;;15.60;2.97;;;15.10;99.90;;;;;;5052455;28;20028;-54
2022/05/27 06:42:56;;;;;;;11.57;3.58;;;15.00;99.90;;;;;;5054390;28;20032;-50
2022/05/27 06:45:22;;;;;;;15.15;2.83;;;14.90;99.90;;;;;;5054438;28;20181;-53
2022/05/27 06:47:47;;;;;;;15.10;3.20;;;14.90;99.90;;;;;;5053117;28;20029;-53
2022/05/27 06:50:14;;;;;;;12.50;2.75;;;15.00;99.90;;;;;;5054812;28;20082;-50
2022/05/27 06:52:40;;;;;;;17.08;3.10;;;14.90;99.90;;;;;;5055446;28;20498;-54
2022/05/27 06:55:10;;;;;;;14.05;3.13;;;15.00;99.90;;;;;;5055528;28;20040;-50
2022/05/27 06:57:38;;;;;;;18.33;2.95;;;15.00;99.90;;;;;;5051518;28;20029;-53
2022/05/27 07:00:09;;;;;;;9.68;2.90;;;15.00;99.90;;;;;;5053994;28;20098;-50
2022/05/27 07:02:34;;;;;;;16.67;3.13;;;15.20;99.90;;;;;;5056926;28;20107;-52
2022/05/27 07:05:00;;;;;;;13.93;2.70;;;15.00;99.90;;;;;;5036004;28;20144;-53
2022/05/27 07:07:29;;;;;;;14.82;3.30;;;14.90;99.90;;;;;;5046933;28;20048;-51
2022/05/27 07:09:54;;;;;;;13.18;2.58;;;14.90;99.90;;;;;;5043065;28;20029;-50
2022/05/27 07:12:20;;;;;;;14.02;2.95;;;15.00;99.90;;;;;;5043592;28;20080;-52
2022/05/27 07:14:45;;;;;;;8.80;2.33;;;15.10;99.90;;;;;;5034821;28;20088;-50
2022/05/27 07:17:11;;;;;;;9.88;2.90;;;15.20;99.90;;;;;;5035069;28;20025;-51
2022/05/27 07:19:41;;;;;;;15.35;2.30;;;15.30;99.90;;;;;;5035718;28;20530;-55
2022/05/27 07:22:08;;;;;;;14.23;2.72;;;15.50;99.90;;;;;;5042910;28;20516;-48
2022/05/27 07:24:34;;;;;;;14.70;3.05;;;15.50;99.90;;;;;;5052485;28;20028;-50
2022/05/27 07:27:00;;;;;;;11.70;3.22;;;15.50;99.90;;;;;;5034942;28;20405;-52
2022/05/27 07:29:25;;;;;;;10.40;3.00;;;15.50;99.90;;;;;;5035888;28;20112;-51
2022/05/27 07:31:51;;;;;;;13.63;4.18;;;15.60;99.90;;;;;;5036226;28;20021;-49
2022/05/27 07:34:16;;;;;;;14.82;3.08;;;15.60;99.90;;;;;;5054822;28;20029;-52
2022/05/27 07:36:42;;;;;;;16.17;2.97;;;15.70;99.90;;;;;;5037454;28;20120;-49
2022/05/27 07:39:08;;;;;;;12.60;2.70;;;15.60;99.90;;;;;;5054997;28;20025;-49
2022/05/27 07:41:34;;;;;;;20.55;3.65;;;15.40;99.90;;;;;;5054516;28;20502;-49
2022/05/27 07:44:01;;;;;;;12.60;3.25;;;15.50;99.90;;;;;;5053968;28;20028;-49
2022/05/27 07:46:29;;;;;;;14.48;3.20;;;15.40;99.90;;;;;;5054286;28;20045;-49
2022/05/27 07:48:55;;;;;;;11.55;3.50;;;15.50;99.90;;;;;;5053661;28;20064;-50
2022/05/27 07:51:21;;;;;;;11.23;2.67;;;15.50;99.90;;;;;;5044895;28;20052;-49
2022/05/27 07:53:46;;;;;;;16.67;3.85;;;15.60;99.90;;;;;;5053817;28;20530;-50
2022/05/27 07:56:12;;;;;;;12.63;3.78;;;15.70;99.90;;;;;;5052065;28;20053;-54
2022/05/27 07:58:38;;;;;;;18.67;3.90;;;15.70;99.90;;;;;;5042653;28;20025;-52
2022/05/27 08:01:05;;;;;;;11.52;3.72;;;15.90;99.90;;;;;;5033582;28;20040;-50
2022/05/27 08:03:30;;;;;;;10.88;3.25;;;15.90;99.90;;;;;;5036146;28;20100;-50
2022/05/27 08:05:57;;;;;;;10.73;3.38;;;15.80;99.90;;;;;;5050890;28;20104;-50
2022/05/27 08:08:23;;;;;;;16.05;3.38;;;16.00;99.90;;;;;;5053819;28;20047;-51
2022/05/27 08:10:49;;;;;;;19.65;4.80;;;15.90;99.90;;;;;;5052065;28;20112;-53
2022/05/27 08:13:15;;;;;;;21.15;4.20;;;16.10;99.90;;;;;;5029497;28;20029;-53
2022/05/27 08:15:40;;;;;;;14.38;3.22;;;16.10;99.90;;;;;;5034139;28;20056;-49
2022/05/27 08:18:07;;;;;;;15.23;3.92;;;16.10;99.90;;;;;;5034174;28;20108;-52
2022/05/27 08:20:34;;;;;;;18.50;3.03;;;16.10;99.90;;;;;;5037772;28;20037;-51
2022/05/27 08:23:00;;;;;;;17.00;3.10;;;16.10;99.90;;;;;;5040226;28;20052;-54
2022/05/27 08:25:28;;;;;;;14.07;3.05;;;16.00;99.90;;;;;;5034639;28;20065;-50
2022/05/27 08:27:54;;;;;;;18.67;3.95;;;16.00;99.90;;;;;;5034063;28;20026;-52
2022/05/27 08:30:30;;;;;;;12.95;3.10;;;16.30;99.90;;;;;;5034056;28;20115;-51
2022/05/27 08:32:56;;;;;;;17.58;2.85;;;16.30;99.90;;;;;;5034179;28;20044;-53
2022/05/27 08:38:09;;;;;;;17.55;3.55;;;16.00;99.90;;;;;;5034329;28;20087;-50
2022/05/27 08:41:05;;;;;;;13.18;4.50;;;16.00;99.90;;;;;;5033835;28;20033;-51
2022/05/27 08:44:10;;;;;;;8.80;3.38;;;15.90;99.90;;;;;;5033966;28;20036;-50
2022/05/27 08:46:44;;;;;;;8.60;2.42;;;15.90;99.90;;;;;;5030511;28;20045;-50
2022/05/27 08:49:17;;;;;;;11.95;3.05;;;15.90;99.90;;;;;;5033906;28;20029;-53
2022/05/27 08:51:53;;;;;;;10.93;2.58;;;16.20;99.90;;;;;;5033376;28;20550;-50
2022/05/27 08:54:39;;;;;;;12.05;3.13;;;16.30;99.90;;;;;;5033614;28;20093;-51
2022/05/27 09:00:14;;;;;;;15.82;3.00;;;15.80;99.90;;;;;;5051846;28;20400;-50
2022/05/27 09:02:44;;;;;;;18.02;3.97;;;15.80;99.90;;;;;;5052286;28;20068;-52
2022/05/27 09:05:16;;;;;;;13.87;3.43;;;15.90;99.90;;;;;;5050439;28;20036;-52
2022/05/27 09:07:56;;;;;;;12.27;3.08;;;15.90;99.90;;;;;;5050601;28;20066;-50
2022/05/27 09:10:39;;;;;;;12.52;3.67;;;16.00;99.90;;;;;;5052154;28;20017;-53
2022/05/27 09:13:13;;;;;;;12.60;3.13;;;16.10;99.90;;;;;;5051654;28;20025;-51
2022/05/27 09:15:41;;;;;;;10.07;2.42;;;16.10;99.90;;;;;;5052436;28;20021;-53
2022/05/27 09:18:25;;;;;;;11.57;2.90;;;16.30;99.90;;;;;;5052092;28;20393;-50
2022/05/27 09:21:13;;;;;;;8.13;2.83;;;16.40;99.90;;;;;;5051672;28;20025;-54
2022/05/27 09:23:44;;;;;;;16.23;3.85;;;16.50;99.90;;;;;;5051580;28;20021;-50
2022/05/27 09:26:24;;;;;;;13.40;2.75;;;16.80;99.90;;;;;;5049159;28;20390;-49
2022/05/27 09:29:33;;;;;;;13.00;2.90;;;16.70;99.90;;;;;;5049589;28;20462;-52
2022/05/27 09:32:05;;;;;;;15.80;3.35;;;16.70;99.90;;;;;;5039982;28;20079;-54
2022/05/27 09:34:35;;;;;;;11.15;2.75;;;16.50;99.90;;;;;;5032616;28;20033;-54
2022/05/27 09:37:05;;;;;;;13.15;2.95;;;16.10;99.90;;;;;;5033051;28;20029;-51
2022/05/27 09:39:32;;;;;;;12.85;3.47;;;16.00;99.90;;;;;;5032931;28;20029;-54
2022/05/27 09:42:13;;;;;;;8.43;2.78;;;16.10;99.90;;;;;;5032802;28;20030;-53
2022/05/27 09:44:42;;;;;;;;;;;16.20;99.90;;;;;;5032811;28;20520;-54
2022/05/27 09:47:08;;;;;;;10.38;2.70;;;16.40;99.90;;;;;;5033351;28;19905;-54
2022/05/27 09:49:34;;;;;;;18.30;3.78;;;16.40;99.90;;;;;;5032433;28;20026;-52
2022/05/27 09:52:01;;;;;;;13.60;2.42;;;16.30;99.90;;;;;;5015930;28;20029;-50
2022/05/27 09:54:35;;;;;;;18.02;3.85;;;16.20;99.90;;;;;;5037030;28;20030;-54
2022/05/27 09:57:16;;;;;;;14.50;2.88;;;16.00;99.90;;;;;;5036307;28;20022;-54
2022/05/27 09:59:46;;;;;;;15.30;3.28;;;16.10;99.90;;;;;;5018351;28;20033;-54
2022/05/27 10:02:28;;;;;;;11.20;2.90;;;16.10;99.90;;;;;;5036086;28;20025;-50
2022/05/27 10:04:55;;;;;;;10.90;2.58;;;16.20;99.90;;;;;;5035988;28;20506;-51
2022/05/27 10:07:50;;;;;;;7.05;2.55;;;16.30;99.90;;;;;;5040264;28;20033;-50
2022/05/27 10:10:32;;;;;;;11.80;2.25;;;16.20;99.90;;;;;;5034706;28;20029;-49
2022/05/27 10:13:24;;;;;;;13.77;3.13;;;16.20;99.90;;;;;;5035773;28;20494;-49
2022/05/27 10:15:50;;;;;;;13.43;3.28;;;16.30;99.90;;;;;;5035823;28;20072;-50
2022/05/27 10:18:26;;;;;;;12.65;2.78;;;16.20;99.90;;;;;;5035717;28;20100;-52
2022/05/27 10:21:02;;;;;;;12.60;3.50;;;16.00;99.90;;;;;;5038116;28;20025;-50
2022/05/27 10:23:37;;;;;;;16.58;4.28;;;15.80;99.90;;;;;;5043938;28;20033;-50
2022/05/27 10:26:33;;;;;;;18.90;3.30;;;15.70;99.90;;;;;;5035787;28;20014;-50
2022/05/27 10:29:13;;;;;;;12.75;4.20;;;15.80;99.90;;;;;;5035843;28;20033;-50
2022/05/27 10:31:54;;;;;;;24.52;4.00;;;16.20;99.90;;;;;;5035500;28;20488;-54
2022/05/27 10:34:37;;;;;;;13.40;3.60;;;16.60;99.90;;;;;;5042336;28;20036;-53
2022/05/27 10:37:09;;;;;;;9.90;3.13;;;16.90;99.90;;;;;;5055461;28;20040;-52
2022/05/27 10:39:35;;;;;;;9.00;2.38;;;17.00;99.90;;;;;;5053320;28;20501;-53
2022/05/27 10:42:39;;;;;;;11.88;2.47;;;17.00;99.90;;;;;;5054994;28;20029;-52
2022/05/27 10:45:23;;;;;;;12.43;2.83;;;16.80;99.90;;;;;;4996021;28;20048;-50
2022/05/27 10:47:51;;;;;;;14.23;3.42;;;16.50;99.90;;;;;;5036409;28;20032;-50
2022/05/27 10:50:27;;;;;;;11.00;2.53;;;16.40;99.90;;;;;;5052103;28;20025;-49
2022/05/27 10:52:59;;;;;;;12.48;3.03;;;16.50;99.90;;;;;;5042431;28;20401;-51
2022/05/27 10:55:58;;;;;;;9.32;2.65;;;16.70;99.90;;;;;;5056469;28;20119;-51
2022/05/27 11:04:39;;;;;;;11.13;2.10;;;16.40;99.90;;;;;;5031648;28;20083;-52
2022/05/27 11:07:23;;;;;;;8.63;2.13;;;16.40;99.90;;;;;;5055746;28;20021;-51
2022/05/27 11:10:01;;;;;;;10.07;2.53;;;16.40;99.90;;;;;;5057386;28;20053;-53
2022/05/27 11:15:55;;;;;;;10.25;3.05;;;16.80;99.90;;;;;;5053750;28;20397;-53
2022/05/27 11:18:47;;;;;;;9.88;2.47;;;16.80;99.90;;;;;;5050152;28;20378;-54
2022/05/27 11:21:40;;;;;;;9.60;2.92;;;16.60;99.90;;;;;;5035865;28;20440;-50
2022/05/27 11:24:31;;;;;;;14.82;2.63;;;16.60;99.90;;;;;;5051784;28;20028;-51
2022/05/27 11:27:17;;;;;;;9.57;2.55;;;16.80;99.90;;;;;;5036510;28;20083;-53
2022/05/27 11:30:14;;;;;;;10.80;2.13;;;16.90;99.90;;;;;;5036617;28;20053;-53
2022/05/27 11:33:01;;;;;;;12.60;2.50;;;16.70;99.90;;;;;;5053677;28;20017;-52
2022/05/27 11:35:54;;;;;;;11.75;2.78;;;16.90;99.90;;;;;;5053153;28;20561;-54
2022/05/27 11:38:32;;;;;;;14.25;2.30;;;17.10;99.90;;;;;;5052632;28;20088;-50
2022/05/27 11:41:24;;;;;;;9.60;2.25;;;16.70;99.90;;;;;;5053636;28;20478;-50
2022/05/27 11:44:15;;;;;;;10.85;2.47;;;16.50;99.90;;;;;;5052996;28;20020;-55
2022/05/27 11:47:13;;;;;;;12.88;3.55;;;16.50;99.90;;;;;;5035924;28;20044;-56
2022/05/27 11:49:41;;;;;;;9.52;3.03;;;16.50;99.90;;;;;;5034984;28;20083;-54
2022/05/27 11:52:31;;;;;;;12.90;2.60;;;16.40;99.90;;;;;;5035941;28;20390;-52
2022/05/27 11:55:12;;;;;;;15.57;3.35;;;16.50;99.90;;;;;;5053650;28;20025;-53
2022/05/27 11:58:14;;;;;;;15.02;3.25;;;16.50;99.90;;;;;;5034658;28;20119;-55
2022/05/27 12:00:46;;;;;;;9.00;2.17;;;16.60;99.90;;;;;;5052734;28;20114;-55
2022/05/27 12:03:31;;;;;;;12.77;2.88;;;16.70;99.90;;;;;;5053659;28;20024;-53
2022/05/27 12:06:12;;;;;;;12.55;2.83;;;16.70;99.90;;;;;;5053106;28;20044;-53
2022/05/27 12:08:48;;;;;;;18.35;2.90;;;16.70;99.90;;;;;;5052194;28;20021;-52
2022/05/27 12:11:21;;;;;;;9.00;2.63;;;16.60;99.90;;;;;;5033109;28;20103;-52
2022/05/27 12:13:58;;;;;;;12.95;3.38;;;16.60;99.90;;;;;;5051535;28;20151;-54
2022/05/27 12:16:27;;;;;;;11.52;2.88;;;16.80;99.90;;;;;;5051874;28;20029;-55
2022/05/27 12:18:58;;;;;;;11.25;2.95;;;16.90;99.90;;;;;;5052957;28;20025;-52
2022/05/27 12:21:27;;;;;;;14.13;3.43;;;16.90;99.90;;;;;;5051129;28;20029;-54
2022/05/27 12:24:03;;;;;;;10.63;2.63;;;17.00;99.90;;;;;;5052578;28;20029;-55
2022/05/27 12:26:34;;;;;;;11.75;2.83;;;17.00;99.90;;;;;;5052083;28;20143;-53
2022/05/27 12:29:04;;;;;;;13.10;2.60;;;17.00;99.90;;;;;;5049875;28;20505;-53
2022/05/27 12:31:31;;;;;;;11.60;3.15;;;17.00;99.90;;;;;;5050629;28;20087;-51
2022/05/27 12:33:57;;;;;;;20.13;2.92;;;16.90;99.90;;;;;;5052338;28;20021;-54
2022/05/27 12:36:25;;;;;;;16.38;3.10;;;16.60;99.90;;;;;;5052831;28;20025;-52
2022/05/27 12:38:53;;;;;;;17.17;2.65;;;16.60;99.90;;;;;;5034606;28;20021;-52
2022/05/27 12:41:37;;;;;;;11.80;2.63;;;16.50;99.90;;;;;;5052639;28;20025;-52
2022/05/27 12:44:09;;;;;;;17.38;2.88;;;16.50;99.90;;;;;;5052814;28;20017;-52
2022/05/27 12:46:44;;;;;;;11.95;2.65;;;16.70;99.90;;;;;;5051240;28;20032;-52
2022/05/27 12:49:30;;;;;;;12.18;3.40;;;17.00;99.90;;;;;;5052575;28;20017;-52
2022/05/27 12:51:56;;;;;;;14.75;3.00;;;16.90;99.90;;;;;;5049338;28;20036;-50
2022/05/27 12:54:45;;;;;;;10.77;3.30;;;16.60;99.90;;;;;;5034750;28;20021;-54
2022/05/27 13:03:34;;;;;;;8.65;2.25;;;16.30;99.90;;;;;;5048663;28;20036;-51
2022/05/27 13:06:17;;;;;;;12.70;2.47;;;16.50;99.90;;;;;;5050107;28;20486;-53
2022/05/27 13:08:50;;;;;;;9.88;1.75;;;16.70;99.90;;;;;;5051970;28;20351;-54
2022/05/27 13:11:22;;;;;;;12.75;2.13;;;16.60;99.90;;;;;;5048154;28;20434;-51
2022/05/27 13:13:51;;;;;;;;;;;16.50;99.90;;;;;;5049592;28;20509;-54
2022/05/27 13:17:08;;;;;;;7.47;2.80;;;16.50;99.90;;;;;;5051543;28;20007;-52
2022/05/27 13:19:49;;;;;;;8.40;2.72;;;16.60;99.90;;;;;;5006079;28;20041;-52
2022/05/27 13:22:32;;;;;;;14.63;3.27;;;16.50;99.90;;;;;;5052186;28;20028;-52
2022/05/27 13:25:19;;;;;;;10.50;2.67;;;16.60;99.90;;;;;;5053454;28;20486;-53
2022/05/27 13:27:46;;;;;;;8.95;3.17;;;16.50;99.90;;;;;;5055369;28;20032;-49
2022/05/27 13:30:14;;;;;;;12.70;3.22;;;16.40;99.90;;;;;;5054802;28;20108;-54
2022/05/27 13:32:58;;;;;;;14.18;3.17;;;16.40;99.90;;;;;;5056724;28;20040;-51
2022/05/27 13:35:39;;;;;;;14.27;3.55;;;16.30;99.90;;;;;;5055545;28;20024;-53
2022/05/27 13:38:13;;;;;;;8.30;2.38;;;16.40;99.90;;;;;;5054754;28;20163;-52
2022/05/27 13:40:40;;;;;;;25.77;3.15;;;16.30;99.90;;;;;;5037580;28;20119;-54
2022/05/27 13:43:27;;;;;;;14.45;2.95;;;16.20;99.90;;;;;;5056050;28;20061;-55